^^
Your Local Weather - Clay, NY Station Historical Data
Daily Summary for February 10, 2017 Units:  Metric    English   Both
« Previous Day
Next Day »
Daily Weekly Monthly Yearly Custom
  High: Low: Average:
Temperature: -5.4 °C -9.1 °C -7.3 °C
Dew Point: -7.4 °C -14.6 °C -11.1 °C
Humidity: 88% 61% 75%
Wind Speed: 9.7km/h 0km/h 4.3km/h
Wind Gust: 20.9km/h - -
Wind- - SW
Pressure: 1024.6 hPa 1012.8 hPa -
Precipitation: 2.54 mm    
Historical Graphs
 
 
Tabular Data for February 10, 2017
Time Temperature Dew Point Pressure Wind Wind Speed Wind Gust Humidity Rainfall Rate (Hourly) solar
00:00 -7.2 °C -9.4 °C 1015.8 hPa NNW 6.4 km/h 9.7 km/h 84% 0 mm 0 W/m2
00:06 -7.1 °C -9.6 °C 1016.1 hPa NW 6.4 km/h 11.3 km/h 82% 0 mm 0 W/m2
00:08 -7.1 °C -9.6 °C 1015.8 hPa WNW 6.4 km/h 11.3 km/h 82% 0 mm 0 W/m2
00:14 -7.1 °C -9.8 °C 1015.8 hPa NW 6.4 km/h 6.4 km/h 81% 0 mm 0 W/m2
00:20 -7.1 °C -10.2 °C 1015.8 hPa NNW 8 km/h 8 km/h 78% 0 mm 0 W/m2
00:26 -7.2 °C -10.5 °C 1016.1 hPa West 8 km/h 8 km/h 77% 0 mm 0 W/m2
00:32 -7.2 °C -10.4 °C 1016.1 hPa NNW 9.7 km/h 9.7 km/h 78% 0 mm 0 W/m2
00:38 -7.4 °C -10.4 °C 1016.1 hPa WNW 9.7 km/h 20.9 km/h 79% 0 mm 0 W/m2
00:44 -7.4 °C -10.3 °C 1016.1 hPa NW 6.4 km/h 9.7 km/h 80% 0 mm 0 W/m2
00:50 -7.6 °C -10.3 °C 1016.1 hPa NW 4.8 km/h 4.8 km/h 81% 0 mm 0 W/m2
00:56 -7.6 °C -10.3 °C 1016.1 hPa NW 6.4 km/h 6.4 km/h 81% 0 mm 0 W/m2
01:02 -7.7 °C -10.4 °C 1016.1 hPa NW 6.4 km/h 6.4 km/h 81% 0 mm 0 W/m2
01:08 -7.7 °C -10.7 °C 1016.1 hPa NW 8 km/h 12.9 km/h 79% 0 mm 0 W/m2
01:14 -7.7 °C -10.9 °C 1016.1 hPa NW 6.4 km/h 9.7 km/h 78% 0 mm 0 W/m2
01:20 -7.7 °C -11 °C 1016.1 hPa NNW 4.8 km/h 4.8 km/h 77% 0 mm 0 W/m2
01:26 -7.5 °C -10.7 °C 1016.1 hPa NW 8 km/h 9.7 km/h 78% 0 mm 0 W/m2
01:32 -7.4 °C -10.6 °C 1016.5 hPa NW 8 km/h 14.5 km/h 78% 0 mm 0 W/m2
01:38 -7.3 °C -10.7 °C 1016.5 hPa NW 8 km/h 14.5 km/h 77% 0 mm 0 W/m2
01:44 -7.3 °C -10.8 °C 1016.5 hPa NNW 6.4 km/h 8 km/h 76% 0 mm 0 W/m2
01:50 -7.3 °C -10.8 °C 1016.8 hPa NNW 6.4 km/h 6.4 km/h 76% 0 mm 0 W/m2
01:56 -7.2 °C -10.7 °C 1017.2 hPa WNW 8 km/h 16.1 km/h 76% 0 mm 0 W/m2
02:02 -7.2 °C -10.7 °C 1017.2 hPa WNW 8 km/h 8 km/h 76% 0 mm 0 W/m2
02:08 -7.3 °C -10.5 °C 1017.5 hPa WNW 8 km/h 12.9 km/h 78% 0 mm 0 W/m2
02:14 -7.4 °C -10.4 °C 1017.8 hPa WNW 8 km/h 19.3 km/h 79% 0 mm 0 W/m2
02:20 -7.6 °C -10.1 °C 1017.8 hPa NW 8 km/h 14.5 km/h 82% 0 mm 0 W/m2
02:22 -7.6 °C -10 °C 1017.8 hPa NW 8 km/h 14.5 km/h 83% 0 mm 0 W/m2
02:28 -7.7 °C -9.9 °C 1017.8 hPa WNW 6.4 km/h 14.5 km/h 84% 0 mm 0 W/m2
02:34 -7.6 °C -10 °C 1018.2 hPa WNW 4.8 km/h 6.4 km/h 83% 0 mm 0 W/m2
02:40 -7.6 °C -9.9 °C 1018.2 hPa WNW 4.8 km/h 8 km/h 83% 0 mm 0 W/m2
02:46 -7.3 °C -10.3 °C 1018.2 hPa NW 4.8 km/h 9.7 km/h 79% 0 mm 0 W/m2
02:52 -7.1 °C -11.1 °C 1018.2 hPa NW 8 km/h 14.5 km/h 73% 0 mm 0 W/m2
02:58 -7 °C -11.6 °C 1018.2 hPa NW 9.7 km/h 14.5 km/h 70% 0 mm 0 W/m2
03:04 -7.1 °C -11.8 °C 1018.5 hPa NW 9.7 km/h 9.7 km/h 69% 0 mm 0 W/m2
03:10 -7.1 °C -12.2 °C 1018.8 hPa WNW 9.7 km/h 11.3 km/h 67% 0 mm 0 W/m2
03:16 -7.3 °C -12 °C 1018.8 hPa NNW 9.7 km/h 11.3 km/h 69% 0 mm 0 W/m2
03:22 -7.4 °C -12.8 °C 1018.8 hPa NW 8 km/h 14.5 km/h 65% 0 mm 0 W/m2
03:28 -7.6 °C -13 °C 1019.2 hPa WNW 8 km/h 14.5 km/h 65% 0 mm 0 W/m2
03:34 -7.7 °C -13.1 °C 1019.2 hPa NW 8 km/h 12.9 km/h 65% 0 mm 0 W/m2
03:40 -7.8 °C -13.4 °C 1019.2 hPa NW 9.7 km/h 9.7 km/h 64% 0 mm 0 W/m2
03:46 -8 °C -13.8 °C 1019.5 hPa NW 8 km/h 12.9 km/h 63% 0 mm 0 W/m2
03:52 -8.1 °C -14.1 °C 1019.5 hPa NW 8 km/h 9.7 km/h 62% 0 mm 0 W/m2
03:58 -8.2 °C -14.2 °C 1019.9 hPa NNW 8 km/h 14.5 km/h 62% 0 mm 0 W/m2
04:04 -8.2 °C -14.2 °C 1019.9 hPa NW 8 km/h 16.1 km/h 62% 0 mm 0 W/m2
04:10 -8.3 °C -14.3 °C 1019.9 hPa NW 6.4 km/h 6.4 km/h 62% 0 mm 0 W/m2
04:16 -8.2 °C -14.4 °C 1020.2 hPa NNW 9.7 km/h 17.7 km/h 61% 0 mm 0 W/m2
04:22 -8.2 °C -14.4 °C 1020.2 hPa WNW 8 km/h 14.5 km/h 61% 0 mm 0 W/m2
04:28 -8.4 °C -14.6 °C 1020.2 hPa WNW 4.8 km/h 14.5 km/h 61% 0 mm 0 W/m2
04:34 -8.4 °C -14.6 °C 1020.5 hPa WNW 4.8 km/h 6.4 km/h 61% 0 mm 0 W/m2
04:40 -8.4 °C -14.4 °C 1020.5 hPa NW 4.8 km/h 4.8 km/h 62% 0 mm 0 W/m2
04:46 -8.4 °C -14.4 °C 1020.5 hPa NW 3.2 km/h 4.8 km/h 62% 0 mm 0 W/m2
04:52 -8.3 °C -14.3 °C 1020.9 hPa NW 4.8 km/h 8 km/h 62% 0 mm 0 W/m2
04:58 -8.2 °C -14.4 °C 1020.9 hPa NW 8 km/h 9.7 km/h 61% 0 mm 0 W/m2
05:04 -8.2 °C -14.4 °C 1020.9 hPa NW 6.4 km/h 8 km/h 61% 0 mm 0 W/m2
05:10 -8.2 °C -14.4 °C 1021.2 hPa NW 6.4 km/h 6.4 km/h 61% 0 mm 0 W/m2
05:16 -8.2 °C -14.4 °C 1021.2 hPa West 4.8 km/h 6.4 km/h 61% 0 mm 0 W/m2
05:22 -8.1 °C -14.3 °C 1021.2 hPa WNW 6.4 km/h 9.7 km/h 61% 0 mm 0 W/m2
05:28 -8.1 °C -14.3 °C 1021.2 hPa WNW 4.8 km/h 9.7 km/h 61% 0 mm 0 W/m2
05:34 -8.1 °C -14.3 °C 1021.2 hPa WNW 4.8 km/h 4.8 km/h 61% 0 mm 0 W/m2
05:40 -8.1 °C -14.1 °C 1021.6 hPa North 3.2 km/h 3.2 km/h 62% 0 mm 0 W/m2
05:46 -8 °C -14 °C 1021.6 hPa NW 4.8 km/h 6.4 km/h 62% 0 mm 0 W/m2
05:52 -8 °C -14 °C 1021.6 hPa WNW 4.8 km/h 4.8 km/h 62% 0 mm 0 W/m2
05:58 -7.9 °C -13.9 °C 1021.6 hPa NW 3.2 km/h 9.7 km/h 62% 0 mm 0 W/m2
06:04 -7.9 °C -13.9 °C 1021.6 hPa WNW 4.8 km/h 8 km/h 62% 0 mm 0 W/m2
06:10 -7.9 °C -13.7 °C 1021.6 hPa WNW 4.8 km/h 4.8 km/h 63% 0 mm 0 W/m2
06:16 -7.9 °C -13.7 °C 1021.9 hPa WNW 4.8 km/h 9.7 km/h 63% 0 mm 0 W/m2
06:22 -7.9 °C -13.3 °C 1021.6 hPa WNW 4.8 km/h 8 km/h 65% 0 mm 0 W/m2
06:28 -8.1 °C -12.7 °C 1021.6 hPa WNW 4.8 km/h 8 km/h 69% 0 mm 0 W/m2
06:34 -8.1 °C -12.8 °C 1021.9 hPa WNW 4.8 km/h 8 km/h 69% 0 mm 0 W/m2
06:40 -8.2 °C -12.7 °C 1021.9 hPa WNW 4.8 km/h 4.8 km/h 70% 0 mm 0 W/m2
06:46 -8.3 °C -12.4 °C 1021.9 hPa NW 4.8 km/h 6.4 km/h 72% 0 mm 0 W/m2
06:52 -8.3 °C -12.4 °C 1021.9 hPa NW 4.8 km/h 4.8 km/h 72% 0 mm 0 W/m2
06:58 -8.3 °C -12.4 °C 1021.9 hPa NW 4.8 km/h 6.4 km/h 72% 0 mm 0 W/m2
07:04 -8.3 °C -12.3 °C 1022.2 hPa NW 3.2 km/h 6.4 km/h 73% 0 mm 0 W/m2
07:10 -8.3 °C -12.3 °C 1022.2 hPa NW 3.2 km/h 9.7 km/h 73% 0 mm 0 W/m2
07:16 -8.4 °C -12.1 °C 1022.6 hPa NNW 4.8 km/h 9.7 km/h 75% 0 mm 0 W/m2
07:22 -8.5 °C -12 °C 1022.6 hPa WNW 4.8 km/h 4.8 km/h 76% 0 mm 5 W/m2
07:28 -8.5 °C -11.7 °C 1022.6 hPa NW 3.2 km/h 4.8 km/h 78% 0 mm 9 W/m2
07:34 -8.6 °C -11.6 °C 1022.6 hPa NW 1.6 km/h 3.2 km/h 79% 0 mm 11 W/m2
07:40 -8.6 °C -11.6 °C 1022.6 hPa Calm     79% 0 mm 19 W/m2
07:46 -8.5 °C -11.3 °C 1022.9 hPa Calm   3.2 km/h 80% 0 mm 21 W/m2
07:52 -8.5 °C -11.3 °C 1022.9 hPa NW 1.6 km/h 4.8 km/h 80% 0 mm 25 W/m2
07:58 -8.5 °C -11.2 °C 1022.9 hPa NW 1.6 km/h 4.8 km/h 81% 0 mm 30 W/m2
08:04 -8.4 °C -11.4 °C 1022.9 hPa West 4.8 km/h 6.4 km/h 79% 0 mm 47 W/m2
08:10 -8.4 °C -11.6 °C 1022.9 hPa NW 4.8 km/h 4.8 km/h 78% 0 mm 47 W/m2
08:16 -8.3 °C -11.5 °C 1023.2 hPa WNW 3.2 km/h 11.3 km/h 78% 0 mm 56 W/m2
08:22 -8.3 °C -11.4 °C 1023.2 hPa North 3.2 km/h 3.2 km/h 78% 0 mm 67 W/m2
08:28 -8.3 °C -11.3 °C 1023.2 hPa North 4.8 km/h 6.4 km/h 79% 0 mm 63 W/m2
08:34 -8.4 °C -11.3 °C 1023.2 hPa NNW 4.8 km/h 8 km/h 80% 0 mm 77 W/m2
08:40 -8.5 °C -11.2 °C 1023.2 hPa NW 4.8 km/h 4.8 km/h 81% 0 mm 76 W/m2
08:46 -8.5 °C -11 °C 1023.2 hPa NW 4.8 km/h 4.8 km/h 82% 0 mm 81 W/m2
08:52 -8.7 °C -10.9 °C 1023.2 hPa NNW 4.8 km/h 4.8 km/h 84% 0 mm 104 W/m2
08:58 -8.6 °C -10.8 °C 1023.6 hPa NW 4.8 km/h 6.4 km/h 84% 0 mm 123 W/m2
09:04 -8.7 °C -10.9 °C 1023.6 hPa NNE 6.4 km/h 9.7 km/h 84% 0 mm 130 W/m2
09:10 -8.8 °C -11.1 °C 1023.6 hPa NNW 6.4 km/h 6.4 km/h 84% 0 mm 165 W/m2
09:16 -8.8 °C -11 °C 1023.6 hPa NNW 4.8 km/h 6.4 km/h 84% 0 mm 207 W/m2
09:22 -8.7 °C -11.1 °C 1023.6 hPa NNW 4.8 km/h 4.8 km/h 83% 0 mm 190 W/m2
09:28 -8.7 °C -11.2 °C 1023.6 hPa NNW 6.4 km/h 6.4 km/h 82% 0 mm 221 W/m2
09:34 -8.6 °C -11.1 °C 1023.6 hPa NW 4.8 km/h 6.4 km/h 82% 0 mm 195 W/m2
09:40 -8.7 °C -11.2 °C 1023.6 hPa NW 6.4 km/h 6.4 km/h 82% 0 mm 195 W/m2
09:46 -8.9 °C -11.7 °C 1023.9 hPa North 8 km/h 11.3 km/h 80% 0 mm 195 W/m2
09:52 -9 °C -12 °C 1023.9 hPa NNW 8 km/h 9.7 km/h 79% 0 mm 183 W/m2
09:58 -9.1 °C -12.1 °C 1023.9 hPa North 8 km/h 9.7 km/h 79% 0 mm 237 W/m2
10:04 -8.9 °C -11.9 °C 1023.9 hPa NNE 9.7 km/h 9.7 km/h 79% 0 mm 204 W/m2
10:10 -8.9 °C -11.9 °C 1024.3 hPa NNW 6.4 km/h 6.4 km/h 79% 0 mm 183 W/m2
10:16 -8.7 °C -11.9 °C 1024.3 hPa North 4.8 km/h 8 km/h 78% 0 mm 155 W/m2
10:22 -8.8 °C -11.8 °C 1024.3 hPa NNE 4.8 km/h 11.3 km/h 79% 0 mm 246 W/m2
10:28 -8.7 °C -11.3 °C 1024.3 hPa NNW 6.4 km/h 11.3 km/h 81% 0 mm 392 W/m2
10:34 -8.2 °C -11 °C 1024.3 hPa NNE 6.4 km/h 6.4 km/h 80% 0 mm 445 W/m2
10:40 -8.1 °C -11.4 °C 1024.6 hPa NE 6.4 km/h 6.4 km/h 77% 0 mm 396 W/m2
10:46 -8.1 °C -11.3 °C 1024.6 hPa NW 6.4 km/h 6.4 km/h 78% 0 mm 404 W/m2
10:52 -7.6 °C -11.4 °C 1024.3 hPa NW 4.8 km/h 6.4 km/h 74% 0 mm 466 W/m2
10:58 -7.8 °C -11.5 °C 1024.6 hPa NE 4.8 km/h 6.4 km/h 75% 0 mm 526 W/m2
11:04 -7.9 °C -11.9 °C 1024.3 hPa North 8 km/h 9.7 km/h 73% 0 mm 213 W/m2
11:10 -8.4 °C -12.2 °C 1024.3 hPa NNW 8 km/h 8 km/h 74% 0 mm 236 W/m2
11:16 -7.4 °C -11.1 °C 1023.9 hPa NNW 4.8 km/h 8 km/h 75% 0 mm 624 W/m2
11:22 -7.8 °C -12 °C 1024.3 hPa NNW 4.8 km/h 4.8 km/h 72% 0 mm 292 W/m2
11:28 -8 °C -12 °C 1023.9 hPa North 6.4 km/h 8 km/h 73% 0 mm 420 W/m2
11:34 -7.6 °C -11.6 °C 1023.9 hPa NNW 8 km/h 9.7 km/h 73% 0 mm 515 W/m2
11:40 -8 °C -12.2 °C 1023.6 hPa North 6.4 km/h 9.7 km/h 72% 0 mm 383 W/m2
11:46 -8 °C -12.2 °C 1023.6 hPa NE 4.8 km/h 9.7 km/h 72% 0 mm 385 W/m2
11:52 -7.9 °C -12.1 °C 1023.2 hPa North 4.8 km/h 4.8 km/h 72% 0 mm 373 W/m2
11:58 -7.8 °C -12.3 °C 1023.2 hPa North 6.4 km/h 11.3 km/h 70% 0 mm 364 W/m2
12:04 -7.8 °C -12.3 °C 1022.9 hPa NNW 6.4 km/h 6.4 km/h 70% 0 mm 366 W/m2
12:06 -7.6 °C -11.9 °C 1022.9 hPa NNE 6.4 km/h 9.7 km/h 71% 0 mm 366 W/m2
12:12 -7.8 °C -12.3 °C 1022.9 hPa North 6.4 km/h 8 km/h 70% 0 mm 327 W/m2
12:18 -7.4 °C -12.1 °C 1022.9 hPa North 4.8 km/h 8 km/h 69% 0 mm 355 W/m2
12:24 -7.2 °C -11.7 °C 1022.9 hPa NNE 4.8 km/h 4.8 km/h 70% 0 mm 522 W/m2
12:30 -6.8 °C -11.8 °C 1022.9 hPa NW 3.2 km/h 6.4 km/h 68% 0 mm 260 W/m2
12:34 -6.8 °C -11.7 °C 1022.9 hPa NW 1.6 km/h 6.4 km/h 68% 0 mm 606 W/m2
12:38 -6.7 °C -12 °C 1022.9 hPa North 3.2 km/h 6.4 km/h 66% 20.07 mm 540 W/m2
12:42 -6.6 °C -11.9 °C 1022.9 hPa North 3.2 km/h 4.8 km/h 66% 3.3 mm 566 W/m2
12:46 -6.2 °C -11.6 °C 1022.9 hPa North 3.2 km/h 4.8 km/h 66% 1.78 mm 612 W/m2
12:48 -6.3 °C -11.8 °C 1022.9 hPa North 3.2 km/h 4.8 km/h 65% 1.52 mm 633 W/m2
12:54 -6 °C -11.7 °C 1022.6 hPa North 1.6 km/h 3.2 km/h 64% 1.02 mm 657 W/m2
13:00 -5.9 °C -12.1 °C 1022.6 hPa North 3.2 km/h 4.8 km/h 62% 0 mm 554 W/m2
13:06 -6.1 °C -12 °C 1022.6 hPa NW 3.2 km/h 4.8 km/h 63% 0 mm 496 W/m2
13:12 -7.1 °C -12.8 °C 1022.6 hPa NW 1.6 km/h 3.2 km/h 64% 3.81 mm 411 W/m2
13:18 -6.9 °C -12.6 °C 1022.2 hPa Calm   3.2 km/h 64% 1.78 mm 436 W/m2
13:24 -6.8 °C -12.1 °C 1022.2 hPa North 1.6 km/h 8 km/h 66% 1.02 mm 443 W/m2
13:30 -6.6 °C -11.9 °C 1022.2 hPa NNW 3.2 km/h 3.2 km/h 66% 0 mm 434 W/m2
13:36 -6.8 °C -12.1 °C 1021.9 hPa ESE 1.6 km/h 6.4 km/h 66% 0 mm 438 W/m2
13:42 -6.6 °C -11.6 °C 1021.9 hPa ESE 1.6 km/h 1.6 km/h 68% 0 mm 480 W/m2
13:48 -6.2 °C -11.9 °C 1021.9 hPa SSW 1.6 km/h 1.6 km/h 64% 1.27 mm 480 W/m2
13:54 -5.5 °C -11.6 °C 1021.9 hPa SSW 1.6 km/h 1.6 km/h 62% 1.27 mm 443 W/m2
14:00 -5.4 °C -11.6 °C 1021.6 hPa SSW 1.6 km/h 1.6 km/h 62% 0 mm 431 W/m2
14:06 -5.5 °C -11.8 °C 1021.6 hPa West 1.6 km/h 4.8 km/h 61% 0 mm 471 W/m2
14:12 -5.7 °C -12 °C 1021.2 hPa West 1.6 km/h 3.2 km/h 61% 0 mm 418 W/m2
14:18 -6.3 °C -12.2 °C 1021.2 hPa West 1.6 km/h 3.2 km/h 63% 0 mm 366 W/m2
14:24 -5.5 °C -11.4 °C 1021.2 hPa Calm   1.6 km/h 63% 0 mm 355 W/m2
14:30 -6.3 °C -12.2 °C 1021.6 hPa SSE 1.6 km/h 1.6 km/h 63% 0 mm 313 W/m2
14:36 -6.1 °C -11.6 °C 1021.6 hPa SSE 1.6 km/h 1.6 km/h 65% 0 mm 297 W/m2
14:42 -5.9 °C -11.6 °C 1021.6 hPa SSW 1.6 km/h 1.6 km/h 64% 0 mm 244 W/m2
14:48 -5.9 °C -11.7 °C 1021.6 hPa SSW 1.6 km/h 1.6 km/h 64% 0 mm 276 W/m2
14:54 -5.9 °C -11.6 °C 1021.2 hPa SE 1.6 km/h 4.8 km/h 64% 0 mm 283 W/m2
15:00 -6.1 °C -11.6 °C 1021.2 hPa SSE 1.6 km/h 6.4 km/h 65% 0 mm 274 W/m2
15:06 -6.1 °C -11.6 °C 1021.2 hPa SSE 3.2 km/h 6.4 km/h 65% 0 mm 251 W/m2
15:12 -6.2 °C -11.5 °C 1021.2 hPa ESE 3.2 km/h 3.2 km/h 66% 0 mm 214 W/m2
15:18 -6.1 °C -11.4 °C 1020.9 hPa SE 3.2 km/h 4.8 km/h 66% 0 mm 186 W/m2
15:24 -5.9 °C -11.2 °C 1020.9 hPa SSE 3.2 km/h 6.4 km/h 66% 0 mm 162 W/m2
15:30 -5.9 °C -11.3 °C 1020.9 hPa SSE 3.2 km/h 3.2 km/h 66% 0 mm 128 W/m2
15:36 -5.9 °C -11.1 °C 1020.9 hPa SSE 1.6 km/h 8 km/h 67% 0 mm 116 W/m2
15:42 -5.9 °C -11.1 °C 1020.9 hPa SSE 3.2 km/h 4.8 km/h 67% 0 mm 113 W/m2
15:48 -5.9 °C -11.1 °C 1020.9 hPa SSE 1.6 km/h 4.8 km/h 67% 0 mm 100 W/m2
15:54 -5.8 °C -11 °C 1020.5 hPa Calm   1.6 km/h 67% 0 mm 91 W/m2
16:00 -5.8 °C -10.7 °C 1020.5 hPa Calm   4.8 km/h 68% 0 mm 81 W/m2
16:06 -5.8 °C -10.7 °C 1020.2 hPa ESE 1.6 km/h 4.8 km/h 68% 0 mm 83 W/m2
16:12 -5.8 °C -10.8 °C 1020.2 hPa SE 1.6 km/h 8 km/h 68% 0 mm 65 W/m2
16:18 -5.9 °C -10.7 °C 1020.2 hPa East 3.2 km/h 8 km/h 69% 0 mm 51 W/m2
16:24 -5.9 °C -10.7 °C 1019.9 hPa ESE 3.2 km/h 3.2 km/h 69% 0 mm 44 W/m2
16:30 -5.9 °C -10.9 °C 1019.9 hPa SE 3.2 km/h 8 km/h 68% 0 mm 40 W/m2
16:36 -5.9 °C -10.7 °C 1019.5 hPa East 3.2 km/h 8 km/h 69% 0 mm 42 W/m2
16:42 -6.2 °C -11.3 °C 1019.2 hPa ESE 4.8 km/h 4.8 km/h 67% 0 mm 33 W/m2
16:48 -6.5 °C -11.4 °C 1019.2 hPa ESE 4.8 km/h 4.8 km/h 68% 0 mm 32 W/m2
16:54 -6.7 °C -11.6 °C 1019.2 hPa East 3.2 km/h 6.4 km/h 68% 0 mm 25 W/m2
17:00 -6.8 °C -11.8 °C 1019.2 hPa East 4.8 km/h 4.8 km/h 68% 0 mm 18 W/m2
17:06 -6.9 °C -11.6 °C 1018.8 hPa ENE 4.8 km/h 9.7 km/h 69% 0 mm 14 W/m2
17:12 -6.9 °C -11.7 °C 1018.8 hPa ESE 4.8 km/h 8 km/h 69% 0 mm 11 W/m2
17:18 -7.1 °C -11.8 °C 1018.5 hPa ENE 4.8 km/h 8 km/h 69% 0 mm 7 W/m2
17:24 -7.1 °C -11.7 °C 1018.5 hPa ENE 3.2 km/h 4.8 km/h 70% 0 mm 0 W/m2
17:30 -7.1 °C -11.7 °C 1018.5 hPa East 4.8 km/h 4.8 km/h 70% 0 mm 0 W/m2
17:36 -7.2 °C -11.7 °C 1018.2 hPa ENE 3.2 km/h 6.4 km/h 70% 0 mm 0 W/m2
17:42 -7.2 °C -11.7 °C 1018.2 hPa East 3.2 km/h 6.4 km/h 70% 0 mm 0 W/m2
17:48 -7.1 °C -11.7 °C 1018.2 hPa East 3.2 km/h 9.7 km/h 70% 0 mm 0 W/m2
17:54 -7.1 °C -11.5 °C 1018.2 hPa East 3.2 km/h 3.2 km/h 71% 0 mm 0 W/m2
18:00 -7.1 °C -11.5 °C 1018.2 hPa East 1.6 km/h 1.6 km/h 71% 0 mm 0 W/m2
18:06 -7.1 °C -11.5 °C 1018.2 hPa ENE 3.2 km/h 3.2 km/h 71% 0 mm 0 W/m2
18:12 -7.1 °C -11.6 °C 1018.2 hPa ESE 3.2 km/h 4.8 km/h 70% 0 mm 0 W/m2
18:18 -7 °C -11.4 °C 1018.2 hPa East 3.2 km/h 4.8 km/h 71% 0 mm 0 W/m2
18:24 -7.1 °C -11.1 °C 1018.2 hPa East 3.2 km/h 3.2 km/h 73% 0 mm 0 W/m2
18:30 -7.1 °C -10.9 °C 1017.8 hPa SE 3.2 km/h 3.2 km/h 74% 0 mm 0 W/m2
18:36 -7.1 °C -10.6 °C 1017.8 hPa East 4.8 km/h 11.3 km/h 76% 0 mm 0 W/m2
18:42 -7.2 °C -10.5 °C 1017.8 hPa ENE 3.2 km/h 3.2 km/h 77% 0 mm 0 W/m2
18:48 -7.2 °C -10.4 °C 1017.8 hPa ESE 3.2 km/h 3.2 km/h 78% 0 mm 0 W/m2
18:54 -7.3 °C -10.2 °C 1017.8 hPa ESE 3.2 km/h 4.8 km/h 80% 0 mm 0 W/m2
19:00 -7.3 °C -10 °C 1017.5 hPa SE 3.2 km/h 3.2 km/h 81% 0 mm 0 W/m2
19:06 -7.3 °C -9.9 °C 1017.5 hPa East 3.2 km/h 9.7 km/h 82% 0 mm 0 W/m2
19:12 -7.3 °C -9.7 °C 1017.5 hPa East 3.2 km/h 3.2 km/h 83% 0 mm 0 W/m2
19:18 -7.3 °C -9.5 °C 1017.2 hPa ESE 3.2 km/h 4.8 km/h 84% 0 mm 0 W/m2
19:24 -7.3 °C -9.5 °C 1017.2 hPa East 3.2 km/h 4.8 km/h 84% 0 mm 0 W/m2
19:30 -7.2 °C -9.3 °C 1017.2 hPa SE 3.2 km/h 3.2 km/h 85% 0 mm 0 W/m2
19:36 -7.2 °C -9.3 °C 1017.2 hPa ESE 3.2 km/h 8 km/h 85% 0 mm 0 W/m2
19:42 -7.2 °C -9.2 °C 1016.8 hPa ENE 3.2 km/h 6.4 km/h 86% 0 mm 0 W/m2
19:48 -7.2 °C -9.2 °C 1016.5 hPa East 3.2 km/h 6.4 km/h 86% 0 mm 0 W/m2
19:54 -7.2 °C -9.2 °C 1016.5 hPa East 3.2 km/h 8 km/h 86% 0 mm 0 W/m2
20:02 -7.2 °C -8.9 °C 1016.1 hPa East 3.2 km/h 3.2 km/h 87% 0 mm 0 W/m2
20:08 -7.2 °C -8.9 °C 1015.8 hPa East 3.2 km/h 6.4 km/h 87% 0 mm 0 W/m2
20:14 -7.2 °C -9 °C 1015.8 hPa ENE 3.2 km/h 11.3 km/h 87% 0 mm 0 W/m2
20:20 -7.2 °C -9 °C 1015.5 hPa East 4.8 km/h 4.8 km/h 87% 0 mm 0 W/m2
20:26 -7.2 °C -9 °C 1015.5 hPa SE 3.2 km/h 4.8 km/h 87% 0 mm 0 W/m2
20:32 -7.2 °C -8.9 °C 1015.1 hPa East 3.2 km/h 4.8 km/h 87% 0 mm 0 W/m2
20:38 -7.2 °C -8.9 °C 1015.1 hPa East 3.2 km/h 4.8 km/h 87% 0 mm 0 W/m2
20:44 -7.1 °C -8.9 °C 1014.8 hPa East 3.2 km/h 9.7 km/h 87% 0 mm 0 W/m2
20:50 -7.1 °C -8.8 °C 1014.4 hPa East 3.2 km/h 4.8 km/h 87% 0 mm 0 W/m2
20:56 -7.1 °C -8.8 °C 1014.8 hPa ENE 3.2 km/h 8 km/h 87% 0 mm 0 W/m2
21:02 -6.9 °C -8.7 °C 1014.8 hPa East 3.2 km/h 4.8 km/h 87% 0 mm 0 W/m2
21:08 -6.9 °C -8.7 °C 1014.4 hPa ENE 3.2 km/h 8 km/h 87% 0 mm 0 W/m2
21:14 -6.9 °C -8.7 °C 1014.4 hPa East 4.8 km/h 8 km/h 87% 0 mm 0 W/m2
21:20 -6.9 °C -8.7 °C 1014.4 hPa ENE 4.8 km/h 6.4 km/h 87% 0 mm 0 W/m2
21:26 -6.8 °C -8.6 °C 1014.1 hPa ENE 4.8 km/h 6.4 km/h 87% 0 mm 0 W/m2
21:32 -6.8 °C -8.6 °C 1014.4 hPa ESE 3.2 km/h 4.8 km/h 87% 0 mm 0 W/m2
21:38 -6.7 °C -8.5 °C 1013.8 hPa East 3.2 km/h 4.8 km/h 87% 0 mm 0 W/m2
21:44 -6.7 °C -8.4 °C 1013.8 hPa SE 3.2 km/h 3.2 km/h 87% 0 mm 0 W/m2
21:50 -6.6 °C -8.4 °C 1013.8 hPa SE 1.6 km/h 1.6 km/h 87% 0 mm 0 W/m2
21:56 -6.6 °C -8.4 °C 1013.8 hPa East 1.6 km/h 4.8 km/h 87% 0 mm 0 W/m2
22:02 -6.6 °C -8.2 °C 1013.8 hPa East 1.6 km/h 3.2 km/h 88% 0 mm 0 W/m2
22:08 -6.6 °C -8.2 °C 1013.4 hPa ESE 1.6 km/h 9.7 km/h 88% 0 mm 0 W/m2
22:14 -6.5 °C -8.2 °C 1013.4 hPa ENE 1.6 km/h 3.2 km/h 88% 0 mm 0 W/m2
22:20 -6.5 °C -8.2 °C 1013.4 hPa ENE 1.6 km/h 1.6 km/h 88% 0 mm 0 W/m2
22:26 -6.4 °C -8.2 °C 1013.4 hPa East 1.6 km/h 4.8 km/h 87% 0 mm 0 W/m2
22:32 -6.3 °C -8.2 °C 1013.4 hPa SE 1.6 km/h 1.6 km/h 87% 0 mm 0 W/m2
22:38 -6.3 °C -8.1 °C 1013.4 hPa SE 1.6 km/h 4.8 km/h 87% 0 mm 0 W/m2
22:44 -6.2 °C -8.1 °C 1013.4 hPa ESE 1.6 km/h 1.6 km/h 87% 0 mm 0 W/m2
22:50 -6.2 °C -8 °C 1013.1 hPa ENE 1.6 km/h 3.2 km/h 87% 0 mm 0 W/m2
22:56 -6.2 °C -8 °C 1013.1 hPa East 1.6 km/h 3.2 km/h 87% 0 mm 0 W/m2
23:02 -6.1 °C -7.9 °C 1013.1 hPa East 1.6 km/h 3.2 km/h 87% 0 mm 0 W/m2
23:08 -6 °C -7.8 °C 1013.4 hPa ENE 1.6 km/h 4.8 km/h 87% 0 mm 0 W/m2
23:14 -5.9 °C -7.8 °C 1013.1 hPa ENE 1.6 km/h 3.2 km/h 87% 0 mm 0 W/m2
23:20 -5.9 °C -7.7 °C 1013.1 hPa ENE 1.6 km/h 6.4 km/h 87% 0 mm 0 W/m2
23:26 -5.8 °C -7.7 °C 1013.1 hPa ESE 1.6 km/h 6.4 km/h 87% 0 mm 0 W/m2
23:32 -5.8 °C -7.6 °C 1013.1 hPa Calm   1.6 km/h 87% 0 mm 0 W/m2
23:38 -5.7 °C -7.6 °C 1012.8 hPa ENE 1.6 km/h 4.8 km/h 87% 0 mm 0 W/m2
23:44 -5.7 °C -7.5 °C 1012.8 hPa ENE 3.2 km/h 3.2 km/h 87% 0 mm 0 W/m2
23:50 -5.6 °C -7.4 °C 1012.8 hPa ENE 1.6 km/h 1.6 km/h 87% 0 mm 0 W/m2
23:56 -5.6 °C -7.4 °C 1012.8 hPa ENE 1.6 km/h 3.2 km/h 87% 0 mm 0 W/m2
Country Meadow, Clay, NY, USA
Compliments of Weather Underground - 2 mb